createdAt,value
2022-07-30T00:01:34.398Z,53.42
2022-07-30T00:04:03.393Z,52.41
2022-07-30T00:06:30.332Z,51.83
2022-07-30T00:08:57.159Z,51.76
2022-07-30T00:11:27.651Z,51.24
2022-07-30T00:13:55.397Z,50.89
2022-07-30T00:16:22.457Z,50.71
2022-07-30T00:18:49.359Z,49.73
2022-07-30T00:21:36.363Z,49.50
2022-07-30T00:24:04.663Z,49.18
2022-07-30T00:26:31.784Z,48.40
2022-07-30T00:28:58.469Z,47.69
2022-07-30T00:31:25.247Z,48.00
2022-07-30T00:33:52.110Z,48.16
2022-07-30T00:36:18.884Z,47.89
2022-07-30T00:38:45.943Z,47.65
2022-07-30T00:41:12.981Z,47.55
2022-07-30T00:43:44.311Z,46.87
2022-07-30T00:46:11.086Z,47.29
2022-07-30T00:48:38.155Z,46.58
2022-07-30T00:51:05.115Z,46.19
2022-07-30T00:53:32.257Z,46.08
2022-07-30T00:55:59.000Z,46.08
2022-07-30T00:58:26.251Z,45.97
2022-07-30T01:00:55.627Z,46.00
2022-07-30T01:03:22.483Z,45.87
2022-07-30T01:05:50.105Z,45.73
2022-07-30T01:08:16.936Z,45.99
2022-07-30T01:10:44.668Z,45.78
2022-07-30T01:13:11.721Z,45.89
2022-07-30T01:15:38.678Z,45.38
2022-07-30T01:18:10.245Z,45.43
2022-07-30T01:20:50.384Z,44.63
2022-07-30T01:23:38.400Z,45.01
2022-07-30T01:26:16.639Z,44.86
2022-07-30T01:28:48.646Z,44.60
2022-07-30T01:31:16.925Z,44.54
2022-07-30T01:33:47.528Z,44.44
2022-07-30T01:36:16.443Z,44.37
2022-07-30T01:38:45.127Z,44.62
2022-07-30T01:41:15.240Z,44.74
2022-07-30T01:43:45.349Z,44.55
2022-07-30T01:46:14.861Z,44.76
2022-07-30T01:48:45.447Z,45.54
2022-07-30T01:51:13.725Z,45.41
2022-07-30T01:53:46.014Z,45.45
2022-07-30T01:56:16.785Z,45.14
2022-07-30T01:58:47.655Z,44.91
2022-07-30T02:01:20.152Z,45.23
2022-07-30T02:03:47.375Z,45.37
2022-07-30T02:06:20.884Z,45.16
2022-07-30T02:08:54.666Z,44.94
2022-07-30T02:11:42.465Z,44.75
2022-07-30T02:14:21.832Z,44.87
2022-07-30T02:16:54.242Z,44.93
2022-07-30T02:19:24.869Z,44.80
2022-07-30T02:22:08.612Z,44.59
2022-07-30T02:24:38.744Z,44.52
2022-07-30T02:27:35.836Z,44.55
2022-07-30T02:30:06.041Z,44.59
2022-07-30T02:32:38.680Z,44.81
2022-07-30T02:35:15.674Z,45.03
2022-07-30T02:37:44.574Z,44.84
2022-07-30T02:40:18.009Z,45.25
2022-07-30T02:42:49.176Z,45.25
2022-07-30T02:45:20.938Z,45.27
2022-07-30T02:47:51.866Z,45.15
2022-07-30T02:50:20.242Z,45.41
2022-07-30T02:52:49.697Z,45.15
2022-07-30T02:55:18.692Z,45.50
2022-07-30T02:57:47.252Z,45.50
2022-07-30T03:00:14.571Z,45.51
2022-07-30T03:02:43.787Z,45.31
2022-07-30T03:05:13.620Z,45.63
2022-07-30T03:07:41.179Z,45.40
2022-07-30T03:10:08.607Z,45.79
2022-07-30T03:12:37.321Z,45.45
2022-07-30T03:15:04.466Z,45.69
2022-07-30T03:17:37.434Z,45.88
2022-07-30T03:20:08.511Z,45.92
2022-07-30T03:22:41.573Z,46.25
2022-07-30T03:25:09.821Z,45.69
2022-07-30T03:27:39.169Z,45.79
2022-07-30T03:30:07.339Z,45.55
2022-07-30T03:32:36.030Z,45.68
2022-07-30T03:35:06.643Z,46.17
2022-07-30T03:37:38.079Z,45.98
2022-07-30T03:40:07.445Z,46.20
2022-07-30T03:42:35.500Z,45.96
2022-07-30T03:45:06.459Z,46.17
2022-07-30T03:47:37.540Z,46.18
2022-07-30T03:50:05.401Z,46.35
2022-07-30T03:52:37.302Z,46.80
2022-07-30T03:55:10.798Z,47.37
2022-07-30T03:57:49.421Z,48.35
2022-07-30T04:00:18.451Z,48.43
2022-07-30T04:02:51.623Z,48.64
2022-07-30T04:05:18.326Z,49.03
2022-07-30T04:07:47.136Z,48.55
2022-07-30T04:10:16.666Z,48.50
2022-07-30T04:12:58.526Z,48.30
2022-07-30T04:16:37.389Z,48.19
2022-07-30T04:18:15.573Z,48.42
2022-07-30T04:20:44.729Z,48.32
2022-07-30T04:23:12.431Z,48.80
2022-07-30T04:25:43.578Z,48.74
2022-07-30T04:28:11.862Z,48.54
2022-07-30T04:30:39.159Z,48.14
2022-07-30T04:33:06.359Z,47.90
2022-07-30T04:35:52.344Z,47.70
2022-07-30T04:38:34.469Z,47.71
2022-07-30T04:41:01.564Z,47.80
2022-07-30T04:43:33.385Z,47.82
2022-07-30T04:46:00.152Z,48.10
2022-07-30T04:48:28.352Z,48.20
2022-07-30T04:51:12.756Z,48.16
2022-07-30T04:53:42.582Z,48.31
2022-07-30T04:56:13.793Z,48.45
2022-07-30T04:58:41.486Z,47.97
2022-07-30T05:01:10.491Z,48.17
2022-07-30T05:03:40.219Z,48.24
2022-07-30T05:06:08.870Z,48.55
2022-07-30T05:08:39.748Z,47.91
2022-07-30T05:11:13.566Z,48.35
2022-07-30T05:13:42.669Z,48.63
2022-07-30T05:16:14.335Z,48.54
2022-07-30T05:18:41.341Z,47.64
2022-07-30T05:21:08.372Z,47.74
2022-07-30T05:23:50.062Z,47.87
2022-07-30T05:26:41.609Z,48.18
2022-07-30T05:29:19.410Z,47.34
2022-07-30T05:31:51.264Z,47.17
2022-07-30T05:34:19.303Z,47.16
2022-07-30T05:36:46.304Z,47.22
2022-07-30T05:39:16.794Z,47.09
2022-07-30T05:41:52.889Z,46.77
2022-07-30T05:44:28.206Z,46.84
2022-07-30T05:46:55.258Z,46.33
2022-07-30T05:49:23.172Z,46.53
2022-07-30T05:51:50.625Z,46.73
2022-07-30T05:54:18.079Z,46.67
2022-07-30T05:57:03.738Z,46.80
2022-07-30T05:59:37.415Z,46.66
2022-07-30T06:02:12.772Z,46.26
2022-07-30T06:04:57.838Z,45.94
2022-07-30T06:07:25.107Z,46.11
2022-07-30T06:09:54.140Z,46.05
2022-07-30T06:12:20.999Z,45.53
2022-07-30T06:14:48.338Z,45.22
2022-07-30T06:17:22.265Z,45.38
2022-07-30T06:20:13.214Z,45.33
2022-07-30T06:22:57.751Z,45.08
2022-07-30T06:25:33.608Z,44.91
2022-07-30T06:28:15.420Z,44.84
2022-07-30T06:30:48.743Z,44.39
2022-07-30T06:33:16.422Z,44.11
2022-07-30T06:35:43.180Z,43.63
2022-07-30T06:38:12.434Z,43.06
2022-07-30T06:40:52.282Z,43.34
2022-07-30T06:43:34.399Z,43.08
2022-07-30T06:46:21.092Z,43.10
2022-07-30T06:48:50.347Z,41.96
2022-07-30T06:51:17.163Z,41.62
2022-07-30T06:53:45.756Z,42.20
2022-07-30T06:56:13.710Z,42.72
2022-07-30T06:58:47.944Z,42.91
2022-07-30T07:01:29.846Z,43.40
2022-07-30T07:03:57.650Z,43.15
2022-07-30T07:06:24.545Z,43.58
2022-07-30T07:08:51.265Z,43.86
2022-07-30T07:11:24.630Z,42.98
2022-07-30T07:13:54.670Z,42.15
2022-07-30T07:16:28.977Z,41.78
2022-07-30T07:18:56.717Z,41.95
2022-07-30T07:21:23.664Z,41.56
2022-07-30T07:23:52.845Z,42.68
2022-07-30T07:26:39.978Z,40.45
2022-07-30T07:29:08.692Z,40.27
2022-07-30T07:32:06.111Z,40.17
2022-07-30T07:34:22.915Z,41.17
2022-07-30T07:36:49.817Z,41.21
2022-07-30T07:39:16.838Z,40.81
2022-07-30T07:41:49.040Z,39.83
2022-07-30T07:44:19.701Z,39.77
2022-07-30T07:46:46.493Z,40.22
2022-07-30T07:49:13.390Z,39.91
2022-07-30T07:51:47.323Z,39.69
2022-07-30T07:54:22.520Z,40.38
2022-07-30T07:56:56.799Z,40.31
2022-07-30T07:59:40.686Z,41.41
2022-07-30T08:02:19.677Z,41.48
2022-07-30T08:05:00.522Z,40.34
2022-07-30T08:07:49.524Z,40.61
2022-07-30T08:10:36.272Z,40.46
2022-07-30T08:13:52.165Z,39.71
2022-07-30T08:16:27.100Z,39.94
2022-07-30T08:19:12.649Z,39.64
2022-07-30T08:21:43.896Z,42.62
2022-07-30T08:24:10.584Z,39.95
2022-07-30T08:26:37.374Z,39.55
2022-07-30T08:29:04.755Z,38.25
2022-07-30T08:31:33.297Z,39.03
2022-07-30T08:34:00.131Z,39.52
2022-07-30T08:36:27.945Z,39.71
2022-07-30T08:38:54.686Z,39.73
2022-07-30T08:41:22.480Z,40.43
2022-07-30T08:43:51.095Z,39.84
2022-07-30T08:46:24.874Z,40.30
2022-07-30T08:48:58.367Z,38.71
2022-07-30T08:51:25.424Z,39.41
2022-07-30T08:54:11.125Z,38.68
2022-07-30T08:56:39.314Z,39.39
2022-07-30T08:59:07.759Z,39.11
2022-07-30T09:01:34.477Z,38.09
2022-07-30T09:04:01.523Z,38.18
2022-07-30T09:06:29.401Z,38.10
2022-07-30T09:08:57.657Z,37.26
2022-07-30T09:11:25.390Z,37.78
2022-07-30T09:13:52.931Z,36.40
2022-07-30T09:16:24.248Z,37.30
2022-07-30T09:18:54.535Z,37.36
2022-07-30T09:21:24.508Z,37.48
2022-07-30T09:24:12.711Z,36.19
2022-07-30T09:27:11.500Z,36.96
2022-07-30T09:29:59.751Z,36.91
2022-07-30T09:32:53.316Z,36.17
2022-07-30T09:35:41.825Z,35.86
2022-07-30T09:38:12.406Z,35.53
2022-07-30T09:41:00.182Z,37.14
2022-07-30T09:43:51.440Z,36.69
2022-07-30T09:46:47.081Z,35.74
2022-07-30T09:49:31.692Z,34.81
2022-07-30T09:51:59.035Z,34.83
2022-07-30T09:54:51.103Z,33.92
2022-07-30T09:57:25.972Z,35.51
2022-07-30T10:00:00.030Z,34.29
2022-07-30T10:02:33.912Z,35.27
2022-07-30T10:05:15.434Z,35.26
2022-07-30T10:07:54.564Z,34.73
2022-07-30T10:10:25.800Z,34.63
2022-07-30T10:12:59.480Z,34.50
2022-07-30T10:15:32.456Z,35.40
2022-07-30T10:18:01.181Z,36.23
2022-07-30T10:20:48.117Z,36.29
2022-07-30T10:23:29.864Z,35.71
2022-07-30T10:26:18.364Z,34.68
2022-07-30T10:28:46.148Z,33.02
2022-07-30T10:31:46.904Z,33.26
2022-07-30T10:34:02.593Z,33.06
2022-07-30T10:36:30.574Z,32.97
2022-07-30T10:38:57.597Z,33.52
2022-07-30T10:41:42.783Z,34.36
2022-07-30T10:44:45.861Z,34.93
2022-07-30T10:47:16.332Z,34.08
2022-07-30T10:50:10.561Z,33.02
2022-07-30T10:53:02.900Z,32.26
2022-07-30T10:55:38.810Z,32.37
2022-07-30T10:58:08.012Z,31.95
2022-07-30T11:00:55.977Z,31.65
2022-07-30T11:03:41.535Z,32.23
2022-07-30T11:06:15.531Z,31.59
2022-07-30T11:08:45.255Z,31.81
2022-07-30T11:12:01.776Z,32.13
2022-07-30T11:14:08.164Z,32.29
2022-07-30T11:16:34.771Z,32.42
2022-07-30T11:19:54.939Z,31.49
2022-07-30T11:22:25.117Z,31.70
2022-07-30T11:24:52.700Z,31.62
2022-07-30T11:27:45.849Z,30.62
2022-07-30T11:30:23.402Z,32.15
2022-07-30T11:33:18.660Z,31.31
2022-07-30T11:36:05.386Z,31.84
2022-07-30T11:38:52.515Z,30.67
2022-07-30T11:41:19.580Z,30.53
2022-07-30T11:43:46.312Z,30.87
2022-07-30T11:46:29.034Z,30.76
2022-07-30T11:49:04.074Z,31.12
2022-07-30T11:51:45.319Z,31.15
2022-07-30T11:54:12.718Z,30.96
2022-07-30T11:56:54.099Z,30.02
2022-07-30T11:59:21.131Z,30.72
2022-07-30T12:02:00.426Z,30.49
2022-07-30T12:04:27.801Z,31.16
2022-07-30T12:06:54.676Z,31.06
2022-07-30T12:09:24.375Z,31.35
2022-07-30T12:11:55.491Z,31.02
2022-07-30T12:14:23.150Z,30.45
2022-07-30T12:16:54.177Z,30.41
2022-07-30T12:19:21.144Z,30.30
2022-07-30T12:21:52.593Z,30.77
2022-07-30T12:24:26.319Z,30.59
2022-07-30T12:27:03.561Z,31.02
2022-07-30T12:29:32.316Z,31.10
2022-07-30T12:31:59.261Z,31.40
2022-07-30T12:34:26.811Z,30.73
2022-07-30T12:36:54.437Z,30.59
2022-07-30T12:39:24.165Z,31.23
2022-07-30T12:41:53.150Z,31.25
2022-07-30T12:44:40.300Z,29.98
2022-07-30T12:47:28.002Z,29.15
2022-07-30T12:49:57.153Z,29.95
2022-07-30T12:52:30.926Z,30.83
2022-07-30T12:55:10.333Z,30.68
2022-07-30T12:58:08.746Z,30.10
2022-07-30T13:00:53.099Z,29.66
2022-07-30T13:03:28.609Z,29.40
2022-07-30T13:05:57.027Z,29.54
2022-07-30T13:09:03.043Z,28.89
2022-07-30T13:11:41.747Z,28.30
2022-07-30T13:14:16.946Z,27.68
2022-07-30T13:16:43.889Z,27.60
2022-07-30T13:19:11.801Z,28.11
2022-07-30T13:21:39.950Z,28.21
2022-07-30T13:24:18.153Z,28.45
2022-07-30T13:26:45.700Z,28.50
2022-07-30T13:29:13.532Z,27.07
2022-07-30T13:31:43.039Z,27.36
2022-07-30T13:34:11.901Z,26.73
2022-07-30T13:36:38.971Z,27.03
2022-07-30T13:39:05.741Z,27.66
2022-07-30T13:41:33.266Z,26.42
2022-07-30T13:44:00.054Z,27.19
2022-07-30T13:46:26.912Z,25.78
2022-07-30T13:48:53.983Z,26.75
2022-07-30T13:51:20.916Z,25.96
2022-07-30T13:53:47.774Z,25.99
2022-07-30T13:56:14.441Z,25.45
2022-07-30T13:58:42.891Z,25.22
2022-07-30T14:01:17.368Z,26.11
2022-07-30T14:03:50.188Z,25.57
2022-07-30T14:06:18.640Z,24.91
2022-07-30T14:08:45.734Z,26.23
2022-07-30T14:11:12.473Z,25.49
2022-07-30T14:13:39.193Z,25.15
2022-07-30T14:16:22.595Z,24.39
2022-07-30T14:18:53.147Z,25.11
2022-07-30T14:21:19.861Z,24.76
2022-07-30T14:23:46.549Z,24.23
2022-07-30T14:26:13.986Z,24.34
2022-07-30T14:28:40.806Z,23.91
2022-07-30T14:31:07.618Z,23.81
2022-07-30T14:33:41.367Z,24.17
2022-07-30T14:36:08.131Z,24.29
2022-07-30T14:38:34.863Z,23.31
2022-07-30T14:41:01.779Z,23.35
2022-07-30T14:43:28.491Z,21.78
2022-07-30T14:45:55.210Z,21.39
2022-07-30T14:48:21.827Z,21.39
2022-07-30T14:51:13.045Z,22.15
2022-07-30T14:53:35.744Z,22.04
2022-07-30T14:56:02.454Z,20.44
2022-07-30T14:58:29.371Z,18.36
2022-07-30T15:00:56.038Z,18.22
2022-07-30T15:03:23.191Z,19.61
2022-07-30T15:05:53.282Z,17.64
2022-07-30T15:08:20.938Z,15.88
2022-07-30T15:10:47.727Z,13.29
2022-07-30T15:13:14.808Z,12.52
2022-07-30T15:15:45.209Z,13.34
2022-07-30T15:18:13.250Z,15.19
2022-07-30T15:20:39.966Z,14.57
2022-07-30T15:23:10.423Z,14.77
2022-07-30T15:25:40.789Z,13.54
2022-07-30T15:28:07.588Z,12.89
2022-07-30T15:30:34.296Z,11.83
2022-07-30T15:33:01.111Z,11.95
2022-07-30T15:35:29.110Z,12.23
2022-07-30T15:37:55.897Z,12.34
2022-07-30T15:40:22.729Z,13.64
2022-07-30T15:42:49.425Z,12.40
2022-07-30T15:45:18.292Z,13.29
2022-07-30T15:47:45.260Z,15.98
2022-07-30T15:50:12.238Z,17.27
2022-07-30T15:52:39.389Z,17.62
2022-07-30T15:55:06.741Z,18.91
2022-07-30T15:57:33.536Z,19.09
2022-07-30T16:00:00.435Z,19.59
2022-07-30T16:02:27.394Z,20.16
2022-07-30T16:04:54.377Z,20.02
2022-07-30T16:07:21.157Z,20.50
2022-07-30T16:09:47.898Z,20.63
2022-07-30T16:12:14.609Z,20.81
2022-07-30T16:14:41.307Z,21.05
2022-07-30T16:17:13.624Z,20.96
2022-07-30T16:19:41.317Z,21.49
2022-07-30T16:22:15.786Z,22.08
2022-07-30T16:24:49.004Z,22.42
2022-07-30T16:27:17.148Z,22.40
2022-07-30T16:29:43.796Z,23.26
2022-07-30T16:32:10.759Z,23.43
2022-07-30T16:34:37.528Z,23.08
2022-07-30T16:37:04.575Z,23.38
2022-07-30T16:39:31.752Z,23.61
2022-07-30T16:41:58.468Z,23.51
2022-07-30T16:44:27.058Z,22.97
2022-07-30T16:46:53.777Z,23.80
2022-07-30T16:49:20.590Z,23.99
2022-07-30T16:51:47.433Z,24.68
2022-07-30T16:54:14.371Z,24.16
2022-07-30T16:56:41.054Z,24.26
2022-07-30T16:59:13.220Z,24.38
2022-07-30T17:01:40.326Z,24.38
2022-07-30T17:04:07.059Z,24.27
2022-07-30T17:06:35.537Z,24.75
2022-07-30T17:09:02.352Z,24.57
2022-07-30T17:11:47.160Z,24.85
2022-07-30T17:14:16.009Z,25.00
2022-07-30T17:16:42.718Z,24.44
2022-07-30T17:19:09.881Z,24.48
2022-07-30T17:21:38.076Z,24.93
2022-07-30T17:24:10.963Z,24.55
2022-07-30T17:26:40.388Z,24.99
2022-07-30T17:29:10.764Z,24.81
2022-07-30T17:31:43.181Z,24.79
2022-07-30T17:34:13.549Z,24.48
2022-07-30T17:36:44.381Z,24.31
2022-07-30T17:40:19.600Z,24.80
2022-07-30T17:42:08.913Z,24.57
2022-07-30T17:44:36.006Z,24.65
2022-07-30T17:47:03.259Z,24.94
2022-07-30T17:49:30.263Z,24.76
2022-07-30T17:51:57.225Z,24.66
2022-07-30T17:54:24.935Z,24.71
2022-07-30T17:56:52.814Z,24.89
2022-07-30T17:59:19.515Z,25.37
2022-07-30T18:01:46.269Z,24.91
2022-07-30T18:04:13.055Z,24.72
2022-07-30T18:06:40.157Z,24.78
2022-07-30T18:09:06.865Z,24.44
2022-07-30T18:11:33.570Z,24.40
2022-07-30T18:14:00.365Z,24.09
2022-07-30T18:16:27.110Z,24.75
2022-07-30T18:18:53.949Z,24.22
2022-07-30T18:21:20.803Z,24.40
2022-07-30T18:23:47.563Z,24.65
2022-07-30T18:26:15.348Z,24.64
2022-07-30T18:28:42.306Z,24.90
2022-07-30T18:31:09.214Z,23.94
2022-07-30T18:33:36.156Z,24.16
2022-07-30T18:36:03.011Z,24.64
2022-07-30T18:38:29.808Z,24.51
2022-07-30T18:41:00.535Z,25.03
2022-07-30T18:43:28.277Z,24.78
2022-07-30T18:45:55.879Z,24.68
2022-07-30T18:48:23.404Z,24.46
2022-07-30T18:50:50.852Z,24.54
2022-07-30T18:53:17.653Z,23.88
2022-07-30T18:55:44.687Z,23.73
2022-07-30T18:58:11.990Z,23.21
2022-07-30T19:00:42.625Z,23.36
2022-07-30T19:03:16.296Z,23.63
2022-07-30T19:05:45.571Z,23.73
2022-07-30T19:08:12.333Z,23.46
2022-07-30T19:10:39.927Z,23.59
2022-07-30T19:13:06.725Z,24.13
2022-07-30T19:15:33.538Z,23.86
2022-07-30T19:18:00.207Z,24.15
2022-07-30T19:20:27.633Z,24.61
2022-07-30T19:23:06.729Z,24.42
2022-07-30T19:25:34.346Z,24.24
2022-07-30T19:28:03.765Z,24.53
2022-07-30T19:30:31.728Z,24.14
2022-07-30T19:33:14.718Z,24.37
2022-07-30T19:35:43.327Z,24.70
2022-07-30T19:38:11.960Z,24.13
2022-07-30T19:40:48.227Z,24.38
2022-07-30T19:43:16.425Z,24.87
2022-07-30T19:45:47.308Z,24.79
2022-07-30T19:48:28.386Z,24.63
2022-07-30T19:50:55.902Z,25.37
2022-07-30T19:53:22.571Z,24.96
2022-07-30T19:55:50.911Z,25.61
2022-07-30T19:58:17.864Z,25.53
2022-07-30T20:00:49.408Z,25.75
2022-07-30T20:03:19.047Z,25.95
2022-07-30T20:05:57.222Z,26.46
2022-07-30T20:08:27.391Z,26.68
2022-07-30T20:10:57.700Z,27.08
2022-07-30T20:13:45.001Z,26.93
2022-07-30T20:16:17.076Z,26.93
2022-07-30T20:18:47.286Z,26.60
2022-07-30T20:21:16.349Z,27.04
2022-07-30T20:23:44.624Z,27.05
2022-07-30T20:26:14.271Z,26.63
2022-07-30T20:28:52.405Z,27.04
2022-07-30T20:31:20.117Z,27.03
2022-07-30T20:33:50.182Z,27.34
2022-07-30T20:36:18.533Z,27.02
2022-07-30T20:38:47.017Z,27.19
2022-07-30T20:41:14.642Z,27.32
2022-07-30T20:43:52.100Z,27.75
2022-07-30T20:46:23.265Z,27.40
2022-07-30T20:48:52.141Z,27.85
2022-07-30T20:51:19.469Z,28.04
2022-07-30T20:53:47.049Z,28.10
2022-07-30T20:56:16.153Z,27.99
2022-07-30T20:58:47.454Z,27.91
2022-07-30T21:01:17.623Z,28.17
2022-07-30T21:03:47.807Z,27.71
2022-07-30T21:06:15.131Z,28.29
2022-07-30T21:08:41.886Z,28.19
2022-07-30T21:11:09.753Z,27.98
2022-07-30T21:13:36.933Z,28.08
2022-07-30T21:16:04.406Z,28.03
2022-07-30T21:18:49.704Z,28.19
2022-07-30T21:21:30.484Z,28.30
2022-07-30T21:24:11.864Z,28.16
2022-07-30T21:26:40.421Z,28.26
2022-07-30T21:29:08.096Z,28.26
2022-07-30T21:31:35.005Z,28.58
2022-07-30T21:34:26.466Z,28.53
2022-07-30T21:36:54.315Z,28.43
2022-07-30T21:39:28.774Z,28.57
2022-07-30T21:41:57.286Z,28.63
2022-07-30T21:44:24.306Z,28.92
2022-07-30T21:46:52.529Z,28.92
2022-07-30T21:49:20.403Z,28.76
2022-07-30T21:51:47.101Z,28.99
2022-07-30T21:54:17.107Z,28.81
2022-07-30T21:56:56.357Z,28.63
2022-07-30T21:59:25.102Z,28.71
2022-07-30T22:01:59.678Z,29.08
2022-07-30T22:04:27.303Z,29.11
2022-07-30T22:06:54.527Z,29.41
2022-07-30T22:09:33.142Z,29.59
2022-07-30T22:12:09.745Z,29.64
2022-07-30T22:14:39.566Z,29.92
2022-07-30T22:17:06.378Z,30.02
2022-07-30T22:19:49.983Z,29.94
2022-07-30T22:22:26.203Z,30.21
2022-07-30T22:24:57.227Z,30.25
2022-07-30T22:27:25.350Z,30.16
2022-07-30T22:29:55.662Z,30.23
2022-07-30T22:32:23.818Z,30.68
2022-07-30T22:34:51.525Z,30.32
2022-07-30T22:37:21.519Z,30.37
2022-07-30T22:39:50.935Z,30.39
2022-07-30T22:42:24.587Z,30.33
2022-07-30T22:44:54.771Z,30.73
2022-07-30T22:47:51.550Z,30.81
2022-07-30T22:50:10.807Z,30.76
2022-07-30T22:52:54.971Z,31.17
2022-07-30T22:55:26.125Z,30.92
2022-07-30T22:57:53.696Z,31.00
2022-07-30T23:00:27.999Z,31.23
2022-07-30T23:02:56.527Z,31.18
2022-07-30T23:05:23.810Z,31.18
2022-07-30T23:07:50.925Z,31.44
2022-07-30T23:10:20.343Z,31.48
2022-07-30T23:12:53.686Z,31.60
2022-07-30T23:15:21.501Z,31.65
2022-07-30T23:17:48.298Z,31.47
2022-07-30T23:20:20.174Z,31.69
2022-07-30T23:22:47.326Z,31.09
2022-07-30T23:25:14.493Z,31.26
2022-07-30T23:27:41.762Z,31.84
2022-07-30T23:30:10.860Z,31.60
2022-07-30T23:32:38.087Z,31.55
2022-07-30T23:35:06.389Z,31.82
2022-07-30T23:37:37.882Z,31.45
2022-07-30T23:40:14.726Z,31.84
2022-07-30T23:42:41.452Z,32.07
2022-07-30T23:45:08.442Z,31.62
2022-07-30T23:47:51.168Z,31.68
2022-07-30T23:50:22.101Z,31.88
2022-07-30T23:52:48.823Z,31.93
2022-07-30T23:55:16.067Z,32.00
2022-07-30T23:57:43.568Z,32.43
